Terminal Aerodrome Forecast
Issued by NWS

Current Version | Previous Version | Text Only | Print | Product List | Glossary On
Versions: 1 2 3 4 5 6 7 8 9 10 11 12 13 14 15 16 17
000
FTUS41 KLWX 312100 AAA
TAFMTN
TAF AMD
KMTN 312100Z 3121/0118 22005KT P6SM BKN070
     FM010600 36006KT P6SM BKN080
     FM011000 36008KT 5SM -SHRA OVC040
     FM011200 36010G18KT 2SM -SHRA BR OVC020
     FM011600 36017G25KT 5SM -SHRA OVC015=

USA.gov is the U.S. government's official web portal to all federal, state and local government web resources and services.